sensor_id;sensor_type;location;lat;lon;timestamp;pressure;altitude;pressure_sealevel;temperature;humidity
75089;BME280;63673;49.928;8.150;2022-12-07T00:01:05;992.6;;;0.31;100
75089;BME280;63673;49.928;8.150;2022-12-07T00:02:01;992.54;;;0.31;100
75089;BME280;63673;49.928;8.150;2022-12-07T00:03:02;992.57;;;0.33;100
75089;BME280;63673;49.928;8.150;2022-12-07T00:04:05;992.56;;;0.33;100
75089;BME280;63673;49.928;8.150;2022-12-07T00:05:06;992.53;;;0.33;100
75089;BME280;63673;49.928;8.150;2022-12-07T00:06:08;992.58;;;0.34;100
75089;BME280;63673;49.928;8.150;2022-12-07T00:07:09;992.59;;;0.34;100
75089;BME280;63673;49.928;8.150;2022-12-07T00:08:11;992.51;;;0.33;100
75089;BME280;63673;49.928;8.150;2022-12-07T00:09:13;992.5;;;0.36;100
75089;BME280;63673;49.928;8.150;2022-12-07T00:10:15;992.48;;;0.35;100
75089;BME280;63673;49.928;8.150;2022-12-07T00:11:17;992.43;;;0.36;100
75089;BME280;63673;49.928;8.150;2022-12-07T00:12:18;992.39;;;0.35;100
75089;BME280;63673;49.928;8.150;2022-12-07T00:13:20;992.48;;;0.36;100
75089;BME280;63673;49.928;8.150;2022-12-07T00:14:22;992.48;;;0.36;100
75089;BME280;63673;49.928;8.150;2022-12-07T00:15:23;992.41;;;0.37;100
75089;BME280;63673;49.928;8.150;2022-12-07T00:16:26;992.37;;;0.37;100
75089;BME280;63673;49.928;8.150;2022-12-07T00:17:27;992.4;;;0.37;100
75089;BME280;63673;49.928;8.150;2022-12-07T00:18:28;992.3;;;0.38;100
75089;BME280;63673;49.928;8.150;2022-12-07T00:19:30;992.35;;;0.38;100
75089;BME280;63673;49.928;8.150;2022-12-07T00:20:32;992.3;;;0.4;100
75089;BME280;63673;49.928;8.150;2022-12-07T00:21:34;992.34;;;0.4;100
75089;BME280;63673;49.928;8.150;2022-12-07T00:22:35;992.29;;;0.4;100
75089;BME280;63673;49.928;8.150;2022-12-07T00:23:37;992.28;;;0.41;100
75089;BME280;63673;49.928;8.150;2022-12-07T00:24:39;992.36;;;0.43;100
75089;BME280;63673;49.928;8.150;2022-12-07T00:25:41;992.33;;;0.44;100
75089;BME280;63673;49.928;8.150;2022-12-07T00:26:42;992.29;;;0.45;100
75089;BME280;63673;49.928;8.150;2022-12-07T00:27:44;992.26;;;0.47;100
75089;BME280;63673;49.928;8.150;2022-12-07T00:28:46;992.31;;;0.46;100
75089;BME280;63673;49.928;8.150;2022-12-07T00:29:48;992.32;;;0.48;100
75089;BME280;63673;49.928;8.150;2022-12-07T00:30:49;992.34;;;0.5;100
75089;BME280;63673;49.928;8.150;2022-12-07T00:31:51;992.37;;;0.51;100
75089;BME280;63673;49.928;8.150;2022-12-07T00:32:53;992.29;;;0.52;100
75089;BME280;63673;49.928;8.150;2022-12-07T00:33:54;992.27;;;0.53;100
75089;BME280;63673;49.928;8.150;2022-12-07T00:34:56;992.27;;;0.54;100
75089;BME280;63673;49.928;8.150;2022-12-07T00:35:58;992.28;;;0.55;100
75089;BME280;63673;49.928;8.150;2022-12-07T00:37:00;992.27;;;0.56;100
75089;BME280;63673;49.928;8.150;2022-12-07T00:38:01;992.24;;;0.57;100
75089;BME280;63673;49.928;8.150;2022-12-07T00:39:03;992.19;;;0.58;100
75089;BME280;63673;49.928;8.150;2022-12-07T00:40:05;992.18;;;0.6;100
75089;BME280;63673;49.928;8.150;2022-12-07T00:41:07;992.23;;;0.63;100
75089;BME280;63673;49.928;8.150;2022-12-07T00:42:08;992.23;;;0.63;100
75089;BME280;63673;49.928;8.150;2022-12-07T00:43:10;992.18;;;0.64;100
75089;BME280;63673;49.928;8.150;2022-12-07T00:44:12;992.09;;;0.67;100
75089;BME280;63673;49.928;8.150;2022-12-07T00:45:14;992.16;;;0.67;100
75089;BME280;63673;49.928;8.150;2022-12-07T00:46:16;992.07;;;0.68;100
75089;BME280;63673;49.928;8.150;2022-12-07T00:47:17;992.1;;;0.7;100
75089;BME280;63673;49.928;8.150;2022-12-07T00:48:19;992.08;;;0.72;100
75089;BME280;63673;49.928;8.150;2022-12-07T00:49:20;992.03;;;0.71;100
75089;BME280;63673;49.928;8.150;2022-12-07T00:50:22;992.03;;;0.73;100
75089;BME280;63673;49.928;8.150;2022-12-07T00:51:24;992.05;;;0.74;100
75089;BME280;63673;49.928;8.150;2022-12-07T00:52:26;992.04;;;0.75;100
75089;BME280;63673;49.928;8.150;2022-12-07T00:53:28;991.97;;;0.76;100
75089;BME280;63673;49.928;8.150;2022-12-07T00:54:29;992.03;;;0.77;100
75089;BME280;63673;49.928;8.150;2022-12-07T00:55:32;991.98;;;0.77;100
75089;BME280;63673;49.928;8.150;2022-12-07T00:56:33;991.98;;;0.78;100
75089;BME280;63673;49.928;8.150;2022-12-07T00:57:34;992.02;;;0.79;100
75089;BME280;63673;49.928;8.150;2022-12-07T00:58:36;991.97;;;0.78;100
75089;BME280;63673;49.928;8.150;2022-12-07T00:59:38;992.06;;;0.79;100
75089;BME280;63673;49.928;8.150;2022-12-07T01:00:40;992.08;;;0.79;100
75089;BME280;63673;49.928;8.150;2022-12-07T01:01:41;992.09;;;0.78;100
75089;BME280;63673;49.928;8.150;2022-12-07T01:02:43;992.04;;;0.77;100
75089;BME280;63673;49.928;8.150;2022-12-07T01:03:45;992.03;;;0.76;100
75089;BME280;63673;49.928;8.150;2022-12-07T01:04:47;991.94;;;0.75;100
75089;BME280;63673;49.928;8.150;2022-12-07T01:05:49;991.98;;;0.74;100
75089;BME280;63673;49.928;8.150;2022-12-07T01:06:50;992.07;;;0.72;100
75089;BME280;63673;49.928;8.150;2022-12-07T01:07:52;992.06;;;0.71;100
75089;BME280;63673;49.928;8.150;2022-12-07T01:08:54;992.06;;;0.69;100
75089;BME280;63673;49.928;8.150;2022-12-07T01:09:55;992.06;;;0.68;100
75089;BME280;63673;49.928;8.150;2022-12-07T01:10:58;992.04;;;0.68;100
75089;BME280;63673;49.928;8.150;2022-12-07T01:11:59;992;;;0.66;100
75089;BME280;63673;49.928;8.150;2022-12-07T01:13:00;992.04;;;0.66;100
75089;BME280;63673;49.928;8.150;2022-12-07T01:14:02;992.07;;;0.64;100
75089;BME280;63673;49.928;8.150;2022-12-07T01:15:04;992.01;;;0.64;100
75089;BME280;63673;49.928;8.150;2022-12-07T01:16:06;992.01;;;0.62;100
75089;BME280;63673;49.928;8.150;2022-12-07T01:17:07;991.94;;;0.61;100
75089;BME280;63673;49.928;8.150;2022-12-07T01:18:09;991.91;;;0.61;100
75089;BME280;63673;49.928;8.150;2022-12-07T01:19:11;991.94;;;0.61;100
75089;BME280;63673;49.928;8.150;2022-12-07T01:20:13;991.94;;;0.62;100
75089;BME280;63673;49.928;8.150;2022-12-07T01:21:15;991.94;;;0.6;100
75089;BME280;63673;49.928;8.150;2022-12-07T01:22:16;991.91;;;0.6;100
75089;BME280;63673;49.928;8.150;2022-12-07T01:23:18;991.95;;;0.59;100
75089;BME280;63673;49.928;8.150;2022-12-07T01:24:19;991.92;;;0.58;100
75089;BME280;63673;49.928;8.150;2022-12-07T01:25:21;991.88;;;0.58;100
75089;BME280;63673;49.928;8.150;2022-12-07T01:26:23;991.91;;;0.57;100
75089;BME280;63673;49.928;8.150;2022-12-07T01:27:25;991.92;;;0.57;100
75089;BME280;63673;49.928;8.150;2022-12-07T01:28:27;991.88;;;0.57;100
75089;BME280;63673;49.928;8.150;2022-12-07T01:29:28;991.9;;;0.56;100
75089;BME280;63673;49.928;8.150;2022-12-07T01:30:30;991.86;;;0.57;100
75089;BME280;63673;49.928;8.150;2022-12-07T01:31:32;991.84;;;0.57;100
75089;BME280;63673;49.928;8.150;2022-12-07T01:32:33;991.9;;;0.56;100
75089;BME280;63673;49.928;8.150;2022-12-07T01:33:36;991.81;;;0.57;100
75089;BME280;63673;49.928;8.150;2022-12-07T01:34:37;991.89;;;0.56;100
75089;BME280;63673;49.928;8.150;2022-12-07T01:35:38;991.9;;;0.56;100
75089;BME280;63673;49.928;8.150;2022-12-07T01:36:40;991.86;;;0.56;100
75089;BME280;63673;49.928;8.150;2022-12-07T01:37:42;991.89;;;0.56;100
75089;BME280;63673;49.928;8.150;2022-12-07T01:38:44;991.89;;;0.55;100
75089;BME280;63673;49.928;8.150;2022-12-07T01:39:48;991.84;;;0.56;100
75089;BME280;63673;49.928;8.150;2022-12-07T01:40:53;991.9;;;0.57;100
75089;BME280;63673;49.928;8.150;2022-12-07T01:41:49;991.89;;;0.56;100
75089;BME280;63673;49.928;8.150;2022-12-07T01:42:51;991.91;;;0.57;100
75089;BME280;63673;49.928;8.150;2022-12-07T01:44:10;991.98;;;0.57;100
75089;BME280;63673;49.928;8.150;2022-12-07T01:45:56;991.89;;;0.58;100
75089;BME280;63673;49.928;8.150;2022-12-07T01:46:00;991.99;;;0.58;100
75089;BME280;63673;49.928;8.150;2022-12-07T01:46:58;991.92;;;0.59;100
75089;BME280;63673;49.928;8.150;2022-12-07T01:47:59;991.92;;;0.6;100
75089;BME280;63673;49.928;8.150;2022-12-07T01:49:01;991.95;;;0.6;100
75089;BME280;63673;49.928;8.150;2022-12-07T01:50:03;991.98;;;0.61;100
75089;BME280;63673;49.928;8.150;2022-12-07T01:51:07;991.96;;;0.62;100
75089;BME280;63673;49.928;8.150;2022-12-07T01:52:09;991.97;;;0.61;100
75089;BME280;63673;49.928;8.150;2022-12-07T01:53:08;991.96;;;0.62;100
75089;BME280;63673;49.928;8.150;2022-12-07T01:54:10;991.94;;;0.63;100
75089;BME280;63673;49.928;8.150;2022-12-07T01:55:12;991.98;;;0.62;100
75089;BME280;63673;49.928;8.150;2022-12-07T01:56:14;991.89;;;0.64;100
75089;BME280;63673;49.928;8.150;2022-12-07T01:57:15;991.92;;;0.64;100
75089;BME280;63673;49.928;8.150;2022-12-07T01:58:17;991.9;;;0.64;100
75089;BME280;63673;49.928;8.150;2022-12-07T01:59:19;991.83;;;0.65;100
75089;BME280;63673;49.928;8.150;2022-12-07T02:00:20;991.86;;;0.65;100
75089;BME280;63673;49.928;8.150;2022-12-07T02:01:22;991.88;;;0.67;100
75089;BME280;63673;49.928;8.150;2022-12-07T02:02:25;991.86;;;0.66;100
75089;BME280;63673;49.928;8.150;2022-12-07T02:03:27;991.85;;;0.66;100
75089;BME280;63673;49.928;8.150;2022-12-07T02:04:27;991.79;;;0.66;100
75089;BME280;63673;49.928;8.150;2022-12-07T02:05:29;991.79;;;0.67;100
75089;BME280;63673;49.928;8.150;2022-12-07T02:06:30;991.75;;;0.67;100
75089;BME280;63673;49.928;8.150;2022-12-07T02:07:32;991.82;;;0.67;100
75089;BME280;63673;49.928;8.150;2022-12-07T02:08:34;991.82;;;0.68;100
75089;BME280;63673;49.928;8.150;2022-12-07T02:09:36;991.81;;;0.7;100
75089;BME280;63673;49.928;8.150;2022-12-07T02:10:37;991.82;;;0.7;100
75089;BME280;63673;49.928;8.150;2022-12-07T02:11:39;991.76;;;0.7;100
75089;BME280;63673;49.928;8.150;2022-12-07T02:12:41;991.78;;;0.71;100
75089;BME280;63673;49.928;8.150;2022-12-07T02:13:43;991.78;;;0.72;100
75089;BME280;63673;49.928;8.150;2022-12-07T02:14:44;991.74;;;0.75;100
75089;BME280;63673;49.928;8.150;2022-12-07T02:15:51;991.71;;;0.75;100
75089;BME280;63673;49.928;8.150;2022-12-07T02:16:51;991.75;;;0.76;100
75089;BME280;63673;49.928;8.150;2022-12-07T02:17:51;991.75;;;0.77;100
75089;BME280;63673;49.928;8.150;2022-12-07T02:18:57;991.67;;;0.78;100
75089;BME280;63673;49.928;8.150;2022-12-07T02:20:04;991.67;;;0.79;100
75089;BME280;63673;49.928;8.150;2022-12-07T02:20:56;991.69;;;0.79;100
75089;BME280;63673;49.928;8.150;2022-12-07T02:21:58;991.6;;;0.81;100
75089;BME280;63673;49.928;8.150;2022-12-07T02:24:09;991.65;;;0.84;100
75089;BME280;63673;49.928;8.150;2022-12-07T02:25:04;991.63;;;0.85;100
75089;BME280;63673;49.928;8.150;2022-12-07T02:26:12;991.69;;;0.86;100
75089;BME280;63673;49.928;8.150;2022-12-07T02:27:08;991.63;;;0.87;100
75089;BME280;63673;49.928;8.150;2022-12-07T02:28:08;991.7;;;0.88;100
75089;BME280;63673;49.928;8.150;2022-12-07T02:29:11;991.68;;;0.89;100
75089;BME280;63673;49.928;8.150;2022-12-07T02:30:11;991.7;;;0.9;100
75089;BME280;63673;49.928;8.150;2022-12-07T02:31:13;991.68;;;0.91;100
75089;BME280;63673;49.928;8.150;2022-12-07T02:32:16;991.61;;;0.91;100
75089;BME280;63673;49.928;8.150;2022-12-07T02:33:16;991.67;;;0.93;100
75089;BME280;63673;49.928;8.150;2022-12-07T02:34:19;991.69;;;0.94;100
75089;BME280;63673;49.928;8.150;2022-12-07T02:35:20;991.66;;;0.94;100
75089;BME280;63673;49.928;8.150;2022-12-07T02:36:22;991.67;;;0.93;100
75089;BME280;63673;49.928;8.150;2022-12-07T02:37:26;991.64;;;0.96;100
75089;BME280;63673;49.928;8.150;2022-12-07T02:38:25;991.68;;;0.95;100
75089;BME280;63673;49.928;8.150;2022-12-07T02:39:28;991.71;;;0.96;100
75089;BME280;63673;49.928;8.150;2022-12-07T02:40:29;991.62;;;0.96;100
75089;BME280;63673;49.928;8.150;2022-12-07T02:41:30;991.62;;;0.96;100
75089;BME280;63673;49.928;8.150;2022-12-07T02:42:32;991.61;;;0.97;100
75089;BME280;63673;49.928;8.150;2022-12-07T02:43:34;991.64;;;0.97;100
75089;BME280;63673;49.928;8.150;2022-12-07T02:44:35;991.65;;;0.97;100
75089;BME280;63673;49.928;8.150;2022-12-07T02:45:37;991.64;;;0.99;100
75089;BME280;63673;49.928;8.150;2022-12-07T02:46:39;991.66;;;1;100
75089;BME280;63673;49.928;8.150;2022-12-07T02:47:40;991.61;;;0.99;100
75089;BME280;63673;49.928;8.150;2022-12-07T02:48:42;991.63;;;1;100
75089;BME280;63673;49.928;8.150;2022-12-07T02:49:43;991.6;;;1;100
75089;BME280;63673;49.928;8.150;2022-12-07T02:50:47;991.64;;;1.02;100
75089;BME280;63673;49.928;8.150;2022-12-07T02:51:47;991.6;;;1.02;100
75089;BME280;63673;49.928;8.150;2022-12-07T02:52:49;991.59;;;1.04;100
75089;BME280;63673;49.928;8.150;2022-12-07T02:53:51;991.57;;;1.04;100
75089;BME280;63673;49.928;8.150;2022-12-07T02:54:52;991.59;;;1.05;100
75089;BME280;63673;49.928;8.150;2022-12-07T02:55:54;991.49;;;1.07;100
75089;BME280;63673;49.928;8.150;2022-12-07T02:56:57;991.52;;;1.06;100
75089;BME280;63673;49.928;8.150;2022-12-07T02:58:02;991.54;;;1.07;100
75089;BME280;63673;49.928;8.150;2022-12-07T02:59:02;991.56;;;1.09;100
75089;BME280;63673;49.928;8.150;2022-12-07T03:00:03;991.44;;;1.11;100
75089;BME280;63673;49.928;8.150;2022-12-07T03:01:04;991.51;;;1.11;100
75089;BME280;63673;49.928;8.150;2022-12-07T03:02:07;991.54;;;1.12;100
75089;BME280;63673;49.928;8.150;2022-12-07T03:03:06;991.46;;;1.13;100
75089;BME280;63673;49.928;8.150;2022-12-07T03:04:09;991.46;;;1.13;100
75089;BME280;63673;49.928;8.150;2022-12-07T03:05:13;991.51;;;1.15;100
75089;BME280;63673;49.928;8.150;2022-12-07T03:06:12;991.41;;;1.16;100
75089;BME280;63673;49.928;8.150;2022-12-07T03:07:17;991.4;;;1.16;100
75089;BME280;63673;49.928;8.150;2022-12-07T03:08:15;991.47;;;1.18;100
75089;BME280;63673;49.928;8.150;2022-12-07T03:09:18;991.46;;;1.19;100
75089;BME280;63673;49.928;8.150;2022-12-07T03:10:19;991.44;;;1.2;100
75089;BME280;63673;49.928;8.150;2022-12-07T03:11:21;991.48;;;1.22;100
75089;BME280;63673;49.928;8.150;2022-12-07T03:12:22;991.49;;;1.23;100
75089;BME280;63673;49.928;8.150;2022-12-07T03:13:24;991.46;;;1.24;100
75089;BME280;63673;49.928;8.150;2022-12-07T03:14:26;991.48;;;1.24;100
75089;BME280;63673;49.928;8.150;2022-12-07T03:15:29;991.54;;;1.25;100
75089;BME280;63673;49.928;8.150;2022-12-07T03:16:29;991.47;;;1.27;100
75089;BME280;63673;49.928;8.150;2022-12-07T03:17:31;991.43;;;1.27;100
75089;BME280;63673;49.928;8.150;2022-12-07T03:18:35;991.39;;;1.28;100
75089;BME280;63673;49.928;8.150;2022-12-07T03:19:34;991.42;;;1.28;100
75089;BME280;63673;49.928;8.150;2022-12-07T03:20:35;991.4;;;1.3;100
75089;BME280;63673;49.928;8.150;2022-12-07T03:21:38;991.4;;;1.31;100
75089;BME280;63673;49.928;8.150;2022-12-07T03:22:39;991.4;;;1.31;100
75089;BME280;63673;49.928;8.150;2022-12-07T03:23:41;991.32;;;1.33;100
75089;BME280;63673;49.928;8.150;2022-12-07T03:24:43;991.4;;;1.34;100
75089;BME280;63673;49.928;8.150;2022-12-07T03:25:45;991.37;;;1.34;100
75089;BME280;63673;49.928;8.150;2022-12-07T03:26:46;991.39;;;1.35;100
75089;BME280;63673;49.928;8.150;2022-12-07T03:27:49;991.4;;;1.36;100
75089;BME280;63673;49.928;8.150;2022-12-07T03:28:50;991.36;;;1.37;100
75089;BME280;63673;49.928;8.150;2022-12-07T03:29:52;991.36;;;1.38;100
75089;BME280;63673;49.928;8.150;2022-12-07T03:30:54;991.31;;;1.4;100
75089;BME280;63673;49.928;8.150;2022-12-07T03:31:55;991.36;;;1.41;100
75089;BME280;63673;49.928;8.150;2022-12-07T03:32:57;991.35;;;1.42;100
75089;BME280;63673;49.928;8.150;2022-12-07T03:33:59;991.35;;;1.43;100
75089;BME280;63673;49.928;8.150;2022-12-07T03:35:00;991.35;;;1.45;100
75089;BME280;63673;49.928;8.150;2022-12-07T03:36:03;991.38;;;1.46;100
75089;BME280;63673;49.928;8.150;2022-12-07T03:37:04;991.38;;;1.47;100
75089;BME280;63673;49.928;8.150;2022-12-07T03:38:07;991.37;;;1.48;100
75089;BME280;63673;49.928;8.150;2022-12-07T03:39:09;991.36;;;1.5;100
75089;BME280;63673;49.928;8.150;2022-12-07T03:40:11;991.39;;;1.51;100
75089;BME280;63673;49.928;8.150;2022-12-07T03:41:11;991.34;;;1.51;100
75089;BME280;63673;49.928;8.150;2022-12-07T03:42:12;991.38;;;1.52;100
75089;BME280;63673;49.928;8.150;2022-12-07T03:43:13;991.4;;;1.53;100
75089;BME280;63673;49.928;8.150;2022-12-07T03:44:15;991.33;;;1.55;100
75089;BME280;63673;49.928;8.150;2022-12-07T03:45:17;991.41;;;1.54;100
75089;BME280;63673;49.928;8.150;2022-12-07T03:46:20;991.38;;;1.56;100
75089;BME280;63673;49.928;8.150;2022-12-07T03:47:22;991.43;;;1.56;100
75089;BME280;63673;49.928;8.150;2022-12-07T03:48:24;991.42;;;1.59;100
75089;BME280;63673;49.928;8.150;2022-12-07T03:49:25;991.39;;;1.58;100
75089;BME280;63673;49.928;8.150;2022-12-07T03:50:28;991.35;;;1.59;100
75089;BME280;63673;49.928;8.150;2022-12-07T03:51:28;991.39;;;1.6;100
75089;BME280;63673;49.928;8.150;2022-12-07T03:52:30;991.4;;;1.61;100
75089;BME280;63673;49.928;8.150;2022-12-07T03:53:32;991.39;;;1.61;100
75089;BME280;63673;49.928;8.150;2022-12-07T03:54:33;991.3;;;1.62;100
75089;BME280;63673;49.928;8.150;2022-12-07T03:55:35;991.35;;;1.63;100
75089;BME280;63673;49.928;8.150;2022-12-07T03:56:36;991.29;;;1.63;100
75089;BME280;63673;49.928;8.150;2022-12-07T03:57:38;991.29;;;1.63;100
75089;BME280;63673;49.928;8.150;2022-12-07T03:58:39;991.36;;;1.64;100
75089;BME280;63673;49.928;8.150;2022-12-07T03:59:41;991.3;;;1.65;100
75089;BME280;63673;49.928;8.150;2022-12-07T04:00:43;991.29;;;1.64;100
75089;BME280;63673;49.928;8.150;2022-12-07T04:01:47;991.28;;;1.65;100
75089;BME280;63673;49.928;8.150;2022-12-07T04:02:46;991.31;;;1.67;100
75089;BME280;63673;49.928;8.150;2022-12-07T04:03:48;991.34;;;1.66;100
75089;BME280;63673;49.928;8.150;2022-12-07T04:04:50;991.33;;;1.67;100
75089;BME280;63673;49.928;8.150;2022-12-07T04:05:52;991.32;;;1.67;100
75089;BME280;63673;49.928;8.150;2022-12-07T04:06:53;991.3;;;1.68;100
75089;BME280;63673;49.928;8.150;2022-12-07T04:07:55;991.3;;;1.68;100
75089;BME280;63673;49.928;8.150;2022-12-07T04:08:57;991.28;;;1.68;100
75089;BME280;63673;49.928;8.150;2022-12-07T04:09:59;991.28;;;1.69;100
75089;BME280;63673;49.928;8.150;2022-12-07T04:11:00;991.27;;;1.69;100
75089;BME280;63673;49.928;8.150;2022-12-07T04:12:02;991.24;;;1.7;100
75089;BME280;63673;49.928;8.150;2022-12-07T04:13:04;991.3;;;1.7;100
75089;BME280;63673;49.928;8.150;2022-12-07T04:14:05;991.31;;;1.71;100
75089;BME280;63673;49.928;8.150;2022-12-07T04:15:08;991.25;;;1.71;100
75089;BME280;63673;49.928;8.150;2022-12-07T04:16:09;991.27;;;1.71;100
75089;BME280;63673;49.928;8.150;2022-12-07T04:17:11;991.23;;;1.72;100
75089;BME280;63673;49.928;8.150;2022-12-07T04:18:12;991.28;;;1.73;100
75089;BME280;63673;49.928;8.150;2022-12-07T04:19:15;991.18;;;1.73;100
75089;BME280;63673;49.928;8.150;2022-12-07T04:20:16;991.21;;;1.75;100
75089;BME280;63673;49.928;8.150;2022-12-07T04:21:18;991.15;;;1.75;100
75089;BME280;63673;49.928;8.150;2022-12-07T04:22:19;991.22;;;1.76;100
75089;BME280;63673;49.928;8.150;2022-12-07T04:23:21;991.22;;;1.75;100
75089;BME280;63673;49.928;8.150;2022-12-07T04:24:23;991.23;;;1.75;100
75089;BME280;63673;49.928;8.150;2022-12-07T04:25:25;991.2;;;1.76;100
75089;BME280;63673;49.928;8.150;2022-12-07T04:26:26;991.19;;;1.76;100
75089;BME280;63673;49.928;8.150;2022-12-07T04:27:28;991.13;;;1.77;100
75089;BME280;63673;49.928;8.150;2022-12-07T04:28:30;991.18;;;1.77;100
75089;BME280;63673;49.928;8.150;2022-12-07T04:29:31;991.18;;;1.77;100
75089;BME280;63673;49.928;8.150;2022-12-07T04:30:33;991.16;;;1.78;100
75089;BME280;63673;49.928;8.150;2022-12-07T04:31:35;991.15;;;1.78;100
75089;BME280;63673;49.928;8.150;2022-12-07T04:32:37;991.14;;;1.78;100
75089;BME280;63673;49.928;8.150;2022-12-07T04:33:38;991.2;;;1.78;100
75089;BME280;63673;49.928;8.150;2022-12-07T04:34:40;991.16;;;1.8;100
75089;BME280;63673;49.928;8.150;2022-12-07T04:35:42;991.16;;;1.79;100
75089;BME280;63673;49.928;8.150;2022-12-07T04:36:44;991.14;;;1.8;100
75089;BME280;63673;49.928;8.150;2022-12-07T04:37:45;991.12;;;1.8;100
75089;BME280;63673;49.928;8.150;2022-12-07T04:38:47;991.16;;;1.8;100
75089;BME280;63673;49.928;8.150;2022-12-07T04:39:49;991.11;;;1.82;100
75089;BME280;63673;49.928;8.150;2022-12-07T04:40:51;991.22;;;1.81;100
75089;BME280;63673;49.928;8.150;2022-12-07T04:41:53;991.19;;;1.82;100
75089;BME280;63673;49.928;8.150;2022-12-07T04:42:54;991.22;;;1.81;100
75089;BME280;63673;49.928;8.150;2022-12-07T04:43:56;991.23;;;1.82;100
75089;BME280;63673;49.928;8.150;2022-12-07T04:44:57;991.23;;;1.83;100
75089;BME280;63673;49.928;8.150;2022-12-07T04:45:59;991.23;;;1.83;100
75089;BME280;63673;49.928;8.150;2022-12-07T04:47:01;991.24;;;1.84;100
75089;BME280;63673;49.928;8.150;2022-12-07T04:48:03;991.25;;;1.84;100
75089;BME280;63673;49.928;8.150;2022-12-07T04:49:04;991.31;;;1.83;100
75089;BME280;63673;49.928;8.150;2022-12-07T04:50:06;991.26;;;1.83;100
75089;BME280;63673;49.928;8.150;2022-12-07T04:51:08;991.23;;;1.85;100
75089;BME280;63673;49.928;8.150;2022-12-07T04:52:10;991.25;;;1.85;100
75089;BME280;63673;49.928;8.150;2022-12-07T04:53:11;991.17;;;1.85;100
75089;BME280;63673;49.928;8.150;2022-12-07T04:54:13;991.17;;;1.85;100
75089;BME280;63673;49.928;8.150;2022-12-07T04:55:15;991.18;;;1.85;100
75089;BME280;63673;49.928;8.150;2022-12-07T04:56:17;991.18;;;1.85;100
75089;BME280;63673;49.928;8.150;2022-12-07T04:57:18;991.16;;;1.85;100
75089;BME280;63673;49.928;8.150;2022-12-07T04:58:20;991.17;;;1.85;100
75089;BME280;63673;49.928;8.150;2022-12-07T04:59:22;991.18;;;1.85;100
75089;BME280;63673;49.928;8.150;2022-12-07T05:00:23;991.14;;;1.85;100
75089;BME280;63673;49.928;8.150;2022-12-07T05:01:25;991.15;;;1.85;100
75089;BME280;63673;49.928;8.150;2022-12-07T05:02:27;991.18;;;1.86;100
75089;BME280;63673;49.928;8.150;2022-12-07T05:03:29;991.16;;;1.86;100
75089;BME280;63673;49.928;8.150;2022-12-07T05:04:30;991.18;;;1.86;100
75089;BME280;63673;49.928;8.150;2022-12-07T05:05:32;991.16;;;1.87;100
75089;BME280;63673;49.928;8.150;2022-12-07T05:06:34;991.19;;;1.87;100
75089;BME280;63673;49.928;8.150;2022-12-07T05:07:36;991.07;;;1.86;100
75089;BME280;63673;49.928;8.150;2022-12-07T05:08:37;991.19;;;1.87;100
75089;BME280;63673;49.928;8.150;2022-12-07T05:09:39;991.2;;;1.86;100
75089;BME280;63673;49.928;8.150;2022-12-07T05:10:41;991.07;;;1.87;100
75089;BME280;63673;49.928;8.150;2022-12-07T05:11:43;991.14;;;1.87;100
75089;BME280;63673;49.928;8.150;2022-12-07T05:12:44;991.14;;;1.86;100
75089;BME280;63673;49.928;8.150;2022-12-07T05:13:46;991.16;;;1.87;100
75089;BME280;63673;49.928;8.150;2022-12-07T05:14:48;991.17;;;1.86;100
75089;BME280;63673;49.928;8.150;2022-12-07T05:15:49;991.15;;;1.87;100
75089;BME280;63673;49.928;8.150;2022-12-07T05:16:51;991.22;;;1.87;100
75089;BME280;63673;49.928;8.150;2022-12-07T05:17:53;991.17;;;1.87;100
75089;BME280;63673;49.928;8.150;2022-12-07T05:18:55;991.21;;;1.86;100
75089;BME280;63673;49.928;8.150;2022-12-07T05:19:56;991.23;;;1.87;100
75089;BME280;63673;49.928;8.150;2022-12-07T05:20:58;991.22;;;1.86;100
75089;BME280;63673;49.928;8.150;2022-12-07T05:22:00;991.2;;;1.87;100
75089;BME280;63673;49.928;8.150;2022-12-07T05:23:02;991.21;;;1.86;100
75089;BME280;63673;49.928;8.150;2022-12-07T05:24:04;991.16;;;1.86;100
75089;BME280;63673;49.928;8.150;2022-12-07T05:25:05;991.21;;;1.86;100
75089;BME280;63673;49.928;8.150;2022-12-07T05:26:07;991.2;;;1.86;100
75089;BME280;63673;49.928;8.150;2022-12-07T05:27:09;991.14;;;1.87;100
75089;BME280;63673;49.928;8.150;2022-12-07T05:28:10;991.18;;;1.86;100
75089;BME280;63673;49.928;8.150;2022-12-07T05:29:13;991.22;;;1.86;100
75089;BME280;63673;49.928;8.150;2022-12-07T05:30:14;991.19;;;1.85;100
75089;BME280;63673;49.928;8.150;2022-12-07T05:31:15;991.19;;;1.86;100
75089;BME280;63673;49.928;8.150;2022-12-07T05:32:17;991.21;;;1.87;100
75089;BME280;63673;49.928;8.150;2022-12-07T05:33:19;991.21;;;1.86;100
75089;BME280;63673;49.928;8.150;2022-12-07T05:34:21;991.17;;;1.87;100
75089;BME280;63673;49.928;8.150;2022-12-07T05:35:22;991.21;;;1.87;100
75089;BME280;63673;49.928;8.150;2022-12-07T05:36:24;991.2;;;1.88;100
75089;BME280;63673;49.928;8.150;2022-12-07T05:37:26;991.2;;;1.88;100
75089;BME280;63673;49.928;8.150;2022-12-07T05:38:28;991.18;;;1.88;100
75089;BME280;63673;49.928;8.150;2022-12-07T05:39:29;991.19;;;1.89;100
75089;BME280;63673;49.928;8.150;2022-12-07T05:40:31;991.16;;;1.89;100
75089;BME280;63673;49.928;8.150;2022-12-07T05:41:33;991.17;;;1.91;100
75089;BME280;63673;49.928;8.150;2022-12-07T05:42:35;991.18;;;1.9;100
75089;BME280;63673;49.928;8.150;2022-12-07T05:43:36;991.15;;;1.9;100
75089;BME280;63673;49.928;8.150;2022-12-07T05:44:38;991.14;;;1.9;100
75089;BME280;63673;49.928;8.150;2022-12-07T05:45:40;991.12;;;1.91;100
75089;BME280;63673;49.928;8.150;2022-12-07T05:46:41;991.16;;;1.91;100
75089;BME280;63673;49.928;8.150;2022-12-07T05:47:43;991.16;;;1.92;100
75089;BME280;63673;49.928;8.150;2022-12-07T05:48:45;991.17;;;1.92;100
75089;BME280;63673;49.928;8.150;2022-12-07T05:49:47;991.18;;;1.91;100
75089;BME280;63673;49.928;8.150;2022-12-07T05:50:49;991.17;;;1.91;100
75089;BME280;63673;49.928;8.150;2022-12-07T05:51:50;991.17;;;1.92;100
75089;BME280;63673;49.928;8.150;2022-12-07T05:52:52;991.15;;;1.91;100